sensor_id;sensor_type;location;lat;lon;timestamp;temperature;humidity
5130;DHT22;2583;50.946;6.954;2023-07-24T00:02:23;19.90;99.90
5130;DHT22;2583;50.946;6.954;2023-07-24T00:04:50;19.90;99.90
5130;DHT22;2583;50.946;6.954;2023-07-24T00:07:17;19.90;99.90
5130;DHT22;2583;50.946;6.954;2023-07-24T00:09:43;19.80;99.90
5130;DHT22;2583;50.946;6.954;2023-07-24T00:12:10;19.80;99.90
5130;DHT22;2583;50.946;6.954;2023-07-24T00:14:37;19.80;99.90
5130;DHT22;2583;50.946;6.954;2023-07-24T00:17:04;19.80;99.90
5130;DHT22;2583;50.946;6.954;2023-07-24T00:19:31;19.80;99.90
5130;DHT22;2583;50.946;6.954;2023-07-24T00:21:58;19.70;99.90
5130;DHT22;2583;50.946;6.954;2023-07-24T00:24:24;19.70;99.90
5130;DHT22;2583;50.946;6.954;2023-07-24T00:26:51;19.60;99.90
5130;DHT22;2583;50.946;6.954;2023-07-24T00:29:18;19.60;99.90
5130;DHT22;2583;50.946;6.954;2023-07-24T00:31:45;19.60;99.90
5130;DHT22;2583;50.946;6.954;2023-07-24T00:34:11;19.60;99.90
5130;DHT22;2583;50.946;6.954;2023-07-24T00:36:38;19.60;99.90
5130;DHT22;2583;50.946;6.954;2023-07-24T00:39:05;19.60;99.90
5130;DHT22;2583;50.946;6.954;2023-07-24T00:41:33;19.60;99.90
5130;DHT22;2583;50.946;6.954;2023-07-24T00:44:00;19.60;99.90
5130;DHT22;2583;50.946;6.954;2023-07-24T00:46:27;19.50;99.90
5130;DHT22;2583;50.946;6.954;2023-07-24T00:49:00;19.60;99.90
5130;DHT22;2583;50.946;6.954;2023-07-24T00:51:47;19.60;99.90
5130;DHT22;2583;50.946;6.954;2023-07-24T00:54:24;19.60;99.90
5130;DHT22;2583;50.946;6.954;2023-07-24T00:56:51;19.60;99.90
5130;DHT22;2583;50.946;6.954;2023-07-24T00:59:18;19.50;99.90
5130;DHT22;2583;50.946;6.954;2023-07-24T01:01:45;19.60;99.90
5130;DHT22;2583;50.946;6.954;2023-07-24T01:04:13;19.60;99.90
5130;DHT22;2583;50.946;6.954;2023-07-24T01:06:40;19.50;99.90
5130;DHT22;2583;50.946;6.954;2023-07-24T01:09:07;19.50;99.90
5130;DHT22;2583;50.946;6.954;2023-07-24T01:11:44;19.50;99.90
5130;DHT22;2583;50.946;6.954;2023-07-24T01:14:24;19.50;99.90
5130;DHT22;2583;50.946;6.954;2023-07-24T01:16:54;19.50;99.90
5130;DHT22;2583;50.946;6.954;2023-07-24T01:19:37;19.50;99.90
5130;DHT22;2583;50.946;6.954;2023-07-24T01:25:23;19.40;99.90
5130;DHT22;2583;50.946;6.954;2023-07-24T01:27:53;19.40;99.90
5130;DHT22;2583;50.946;6.954;2023-07-24T01:30:20;19.40;99.90
5130;DHT22;2583;50.946;6.954;2023-07-24T01:32:48;19.40;99.90
5130;DHT22;2583;50.946;6.954;2023-07-24T01:35:15;19.40;99.90
5130;DHT22;2583;50.946;6.954;2023-07-24T01:37:43;19.30;99.90
5130;DHT22;2583;50.946;6.954;2023-07-24T01:40:11;19.30;99.90
5130;DHT22;2583;50.946;6.954;2023-07-24T01:42:38;19.30;99.90
5130;DHT22;2583;50.946;6.954;2023-07-24T01:45:05;19.40;99.90
5130;DHT22;2583;50.946;6.954;2023-07-24T01:47:32;19.40;99.90
5130;DHT22;2583;50.946;6.954;2023-07-24T01:49:59;19.40;99.90
5130;DHT22;2583;50.946;6.954;2023-07-24T01:52:26;19.40;99.90
5130;DHT22;2583;50.946;6.954;2023-07-24T01:54:53;19.30;99.90
5130;DHT22;2583;50.946;6.954;2023-07-24T01:57:20;19.30;99.90
5130;DHT22;2583;50.946;6.954;2023-07-24T01:59:46;19.30;99.90
5130;DHT22;2583;50.946;6.954;2023-07-24T02:02:15;19.30;99.90
5130;DHT22;2583;50.946;6.954;2023-07-24T02:04:42;19.40;99.90
5130;DHT22;2583;50.946;6.954;2023-07-24T02:07:09;19.40;99.90
5130;DHT22;2583;50.946;6.954;2023-07-24T02:09:35;19.40;99.90
5130;DHT22;2583;50.946;6.954;2023-07-24T02:12:02;19.40;99.90
5130;DHT22;2583;50.946;6.954;2023-07-24T02:14:29;19.40;99.90
5130;DHT22;2583;50.946;6.954;2023-07-24T02:16:56;19.50;99.90
5130;DHT22;2583;50.946;6.954;2023-07-24T02:19:23;19.50;99.90
5130;DHT22;2583;50.946;6.954;2023-07-24T02:21:49;19.50;99.90
5130;DHT22;2583;50.946;6.954;2023-07-24T02:24:16;19.50;99.90
5130;DHT22;2583;50.946;6.954;2023-07-24T02:26:43;19.50;99.90
5130;DHT22;2583;50.946;6.954;2023-07-24T02:29:09;19.50;99.90
5130;DHT22;2583;50.946;6.954;2023-07-24T02:31:36;19.40;99.90
5130;DHT22;2583;50.946;6.954;2023-07-24T02:34:03;19.50;99.90
5130;DHT22;2583;50.946;6.954;2023-07-24T02:36:30;19.40;99.90
5130;DHT22;2583;50.946;6.954;2023-07-24T02:38:57;19.40;99.90
5130;DHT22;2583;50.946;6.954;2023-07-24T02:41:24;19.40;99.90
5130;DHT22;2583;50.946;6.954;2023-07-24T02:43:50;19.40;99.90
5130;DHT22;2583;50.946;6.954;2023-07-24T02:46:17;19.40;99.90
5130;DHT22;2583;50.946;6.954;2023-07-24T02:48:44;19.40;99.90
5130;DHT22;2583;50.946;6.954;2023-07-24T02:51:11;19.40;99.90
5130;DHT22;2583;50.946;6.954;2023-07-24T02:53:37;19.40;99.90
5130;DHT22;2583;50.946;6.954;2023-07-24T02:56:04;19.30;99.90
5130;DHT22;2583;50.946;6.954;2023-07-24T02:58:31;19.40;99.90
5130;DHT22;2583;50.946;6.954;2023-07-24T03:01:05;19.40;99.90
5130;DHT22;2583;50.946;6.954;2023-07-24T03:03:34;19.40;99.90
5130;DHT22;2583;50.946;6.954;2023-07-24T03:06:01;19.40;99.90
5130;DHT22;2583;50.946;6.954;2023-07-24T03:08:28;19.30;99.90
5130;DHT22;2583;50.946;6.954;2023-07-24T03:10:55;19.40;99.90
5130;DHT22;2583;50.946;6.954;2023-07-24T03:13:22;19.40;99.90
5130;DHT22;2583;50.946;6.954;2023-07-24T03:15:56;19.40;99.90
5130;DHT22;2583;50.946;6.954;2023-07-24T03:18:23;19.40;99.90
5130;DHT22;2583;50.946;6.954;2023-07-24T03:20:50;19.40;99.90
5130;DHT22;2583;50.946;6.954;2023-07-24T03:23:17;19.40;99.90
5130;DHT22;2583;50.946;6.954;2023-07-24T03:25:44;19.40;99.90
5130;DHT22;2583;50.946;6.954;2023-07-24T03:28:10;19.40;99.90
5130;DHT22;2583;50.946;6.954;2023-07-24T03:30:37;19.40;99.90
5130;DHT22;2583;50.946;6.954;2023-07-24T03:33:04;19.40;99.90
5130;DHT22;2583;50.946;6.954;2023-07-24T03:35:32;19.40;99.90
5130;DHT22;2583;50.946;6.954;2023-07-24T03:37:59;19.30;99.90
5130;DHT22;2583;50.946;6.954;2023-07-24T03:40:26;19.30;99.90
5130;DHT22;2583;50.946;6.954;2023-07-24T03:42:53;19.30;99.90
5130;DHT22;2583;50.946;6.954;2023-07-24T03:45:20;19.30;99.90
5130;DHT22;2583;50.946;6.954;2023-07-24T03:47:47;19.30;99.90
5130;DHT22;2583;50.946;6.954;2023-07-24T03:50:14;19.30;99.90
5130;DHT22;2583;50.946;6.954;2023-07-24T03:52:41;19.30;99.90
5130;DHT22;2583;50.946;6.954;2023-07-24T03:55:08;19.40;99.90
5130;DHT22;2583;50.946;6.954;2023-07-24T03:57:35;19.40;99.90
5130;DHT22;2583;50.946;6.954;2023-07-24T04:00:03;19.40;99.90
5130;DHT22;2583;50.946;6.954;2023-07-24T04:02:30;19.40;99.90
5130;DHT22;2583;50.946;6.954;2023-07-24T04:04:56;19.40;99.90
5130;DHT22;2583;50.946;6.954;2023-07-24T04:07:23;19.40;99.90
5130;DHT22;2583;50.946;6.954;2023-07-24T04:09:50;19.40;99.90
5130;DHT22;2583;50.946;6.954;2023-07-24T04:12:17;19.40;99.90
5130;DHT22;2583;50.946;6.954;2023-07-24T04:14:43;19.40;99.90
5130;DHT22;2583;50.946;6.954;2023-07-24T04:17:10;19.40;99.90
5130;DHT22;2583;50.946;6.954;2023-07-24T04:19:37;19.40;99.90
5130;DHT22;2583;50.946;6.954;2023-07-24T04:22:04;19.40;99.90
5130;DHT22;2583;50.946;6.954;2023-07-24T04:24:30;19.40;99.90
5130;DHT22;2583;50.946;6.954;2023-07-24T04:26:57;19.40;99.90
5130;DHT22;2583;50.946;6.954;2023-07-24T04:29:24;19.40;99.90
5130;DHT22;2583;50.946;6.954;2023-07-24T04:31:52;19.40;99.90
5130;DHT22;2583;50.946;6.954;2023-07-24T04:34:19;19.40;99.90
5130;DHT22;2583;50.946;6.954;2023-07-24T04:36:46;19.40;99.90
5130;DHT22;2583;50.946;6.954;2023-07-24T04:39:12;19.40;99.90
5130;DHT22;2583;50.946;6.954;2023-07-24T04:41:39;19.40;99.90
5130;DHT22;2583;50.946;6.954;2023-07-24T04:44:06;19.40;99.90
5130;DHT22;2583;50.946;6.954;2023-07-24T04:46:32;19.40;99.90
5130;DHT22;2583;50.946;6.954;2023-07-24T04:49:00;19.50;99.90
5130;DHT22;2583;50.946;6.954;2023-07-24T04:51:27;19.50;99.90
5130;DHT22;2583;50.946;6.954;2023-07-24T04:53:53;19.50;99.90
5130;DHT22;2583;50.946;6.954;2023-07-24T04:56:20;19.50;99.90
5130;DHT22;2583;50.946;6.954;2023-07-24T04:58:47;19.50;99.90
5130;DHT22;2583;50.946;6.954;2023-07-24T05:01:14;19.60;99.90
5130;DHT22;2583;50.946;6.954;2023-07-24T05:03:40;19.60;99.90
5130;DHT22;2583;50.946;6.954;2023-07-24T05:06:07;19.70;99.90
5130;DHT22;2583;50.946;6.954;2023-07-24T05:08:34;19.70;99.90
5130;DHT22;2583;50.946;6.954;2023-07-24T05:11:01;19.70;99.90
5130;DHT22;2583;50.946;6.954;2023-07-24T05:13:27;19.80;99.90
5130;DHT22;2583;50.946;6.954;2023-07-24T05:15:54;19.80;99.90
5130;DHT22;2583;50.946;6.954;2023-07-24T05:18:21;19.80;99.90
5130;DHT22;2583;50.946;6.954;2023-07-24T05:20:48;19.80;99.90
5130;DHT22;2583;50.946;6.954;2023-07-24T05:23:18;19.90;99.90
5130;DHT22;2583;50.946;6.954;2023-07-24T05:25:45;20.00;99.90
5130;DHT22;2583;50.946;6.954;2023-07-24T05:28:11;20.10;99.90
5130;DHT22;2583;50.946;6.954;2023-07-24T05:30:38;20.10;99.90
5130;DHT22;2583;50.946;6.954;2023-07-24T05:33:05;20.20;99.90
5130;DHT22;2583;50.946;6.954;2023-07-24T05:35:32;20.20;99.90
5130;DHT22;2583;50.946;6.954;2023-07-24T05:37:59;20.20;99.90
5130;DHT22;2583;50.946;6.954;2023-07-24T05:40:25;20.20;99.90
5130;DHT22;2583;50.946;6.954;2023-07-24T05:42:52;20.30;99.90
5130;DHT22;2583;50.946;6.954;2023-07-24T05:45:19;20.30;99.90
5130;DHT22;2583;50.946;6.954;2023-07-24T05:47:46;20.30;99.90
5130;DHT22;2583;50.946;6.954;2023-07-24T05:50:13;20.30;99.90
5130;DHT22;2583;50.946;6.954;2023-07-24T05:52:40;20.50;99.90
5130;DHT22;2583;50.946;6.954;2023-07-24T05:55:07;20.50;99.90
5130;DHT22;2583;50.946;6.954;2023-07-24T05:57:35;20.60;99.90
5130;DHT22;2583;50.946;6.954;2023-07-24T06:00:06;20.70;99.90
5130;DHT22;2583;50.946;6.954;2023-07-24T06:02:33;20.70;99.90
5130;DHT22;2583;50.946;6.954;2023-07-24T06:05:00;20.70;99.90
5130;DHT22;2583;50.946;6.954;2023-07-24T06:07:27;20.70;99.90
5130;DHT22;2583;50.946;6.954;2023-07-24T06:09:54;20.80;99.90
5130;DHT22;2583;50.946;6.954;2023-07-24T06:12:20;21.00;99.90
5130;DHT22;2583;50.946;6.954;2023-07-24T06:14:47;21.00;99.90
5130;DHT22;2583;50.946;6.954;2023-07-24T06:17:14;21.10;99.90
5130;DHT22;2583;50.946;6.954;2023-07-24T06:19:41;21.10;99.90
5130;DHT22;2583;50.946;6.954;2023-07-24T06:22:07;21.10;99.90
5130;DHT22;2583;50.946;6.954;2023-07-24T06:24:34;21.10;99.90
5130;DHT22;2583;50.946;6.954;2023-07-24T06:27:01;21.10;99.90
5130;DHT22;2583;50.946;6.954;2023-07-24T06:29:28;21.10;99.90
5130;DHT22;2583;50.946;6.954;2023-07-24T06:31:54;21.10;99.90
5130;DHT22;2583;50.946;6.954;2023-07-24T06:34:21;21.20;99.90
5130;DHT22;2583;50.946;6.954;2023-07-24T06:36:48;21.10;99.90
5130;DHT22;2583;50.946;6.954;2023-07-24T06:39:15;21.10;99.90
5130;DHT22;2583;50.946;6.954;2023-07-24T06:41:42;21.10;99.90
5130;DHT22;2583;50.946;6.954;2023-07-24T06:44:09;21.10;99.90
5130;DHT22;2583;50.946;6.954;2023-07-24T06:46:36;21.10;99.90
5130;DHT22;2583;50.946;6.954;2023-07-24T06:49:02;21.10;99.90
5130;DHT22;2583;50.946;6.954;2023-07-24T06:51:29;21.20;99.90
5130;DHT22;2583;50.946;6.954;2023-07-24T06:53:56;21.20;99.90
5130;DHT22;2583;50.946;6.954;2023-07-24T06:56:23;21.20;99.90
5130;DHT22;2583;50.946;6.954;2023-07-24T06:58:50;21.20;99.90
5130;DHT22;2583;50.946;6.954;2023-07-24T07:01:16;21.20;99.90
5130;DHT22;2583;50.946;6.954;2023-07-24T07:03:43;21.20;99.90
5130;DHT22;2583;50.946;6.954;2023-07-24T07:06:10;21.30;99.90
5130;DHT22;2583;50.946;6.954;2023-07-24T07:08:54;21.30;99.90
5130;DHT22;2583;50.946;6.954;2023-07-24T07:11:20;21.40;99.90
5130;DHT22;2583;50.946;6.954;2023-07-24T07:13:47;21.50;99.90
5130;DHT22;2583;50.946;6.954;2023-07-24T07:16:14;21.50;99.90
5130;DHT22;2583;50.946;6.954;2023-07-24T07:18:43;21.60;99.50
5130;DHT22;2583;50.946;6.954;2023-07-24T07:21:10;21.60;99.20
5130;DHT22;2583;50.946;6.954;2023-07-24T07:23:36;21.70;99.10
5130;DHT22;2583;50.946;6.954;2023-07-24T07:26:03;21.60;99.00
5130;DHT22;2583;50.946;6.954;2023-07-24T07:28:30;21.70;99.70
5130;DHT22;2583;50.946;6.954;2023-07-24T07:30:57;21.60;98.50
5130;DHT22;2583;50.946;6.954;2023-07-24T07:33:24;21.50;98.60
5130;DHT22;2583;50.946;6.954;2023-07-24T07:35:51;21.50;98.50
5130;DHT22;2583;50.946;6.954;2023-07-24T07:38:18;21.50;99.10
5130;DHT22;2583;50.946;6.954;2023-07-24T07:40:44;21.50;99.20
5130;DHT22;2583;50.946;6.954;2023-07-24T07:43:11;21.60;98.70
5130;DHT22;2583;50.946;6.954;2023-07-24T07:45:38;21.60;98.10
5130;DHT22;2583;50.946;6.954;2023-07-24T07:48:05;21.60;97.60
5130;DHT22;2583;50.946;6.954;2023-07-24T07:50:32;21.70;97.60
5130;DHT22;2583;50.946;6.954;2023-07-24T07:52:59;21.80;97.60
5130;DHT22;2583;50.946;6.954;2023-07-24T07:55:26;21.90;97.20
5130;DHT22;2583;50.946;6.954;2023-07-24T07:57:52;22.00;97.10
5130;DHT22;2583;50.946;6.954;2023-07-24T08:00:19;22.10;95.60
5130;DHT22;2583;50.946;6.954;2023-07-24T08:02:46;22.00;96.20
5130;DHT22;2583;50.946;6.954;2023-07-24T08:05:12;22.10;96.60
5130;DHT22;2583;50.946;6.954;2023-07-24T08:07:46;22.10;96.10
5130;DHT22;2583;50.946;6.954;2023-07-24T08:10:13;22.20;95.90
5130;DHT22;2583;50.946;6.954;2023-07-24T08:12:42;22.30;96.10
5130;DHT22;2583;50.946;6.954;2023-07-24T08:15:10;22.40;95.00
5130;DHT22;2583;50.946;6.954;2023-07-24T08:17:37;22.40;94.70
5130;DHT22;2583;50.946;6.954;2023-07-24T08:20:05;22.40;94.10
5130;DHT22;2583;50.946;6.954;2023-07-24T08:22:32;22.40;94.60
5130;DHT22;2583;50.946;6.954;2023-07-24T08:24:59;22.40;95.30
5130;DHT22;2583;50.946;6.954;2023-07-24T08:27:25;22.30;95.00
5130;DHT22;2583;50.946;6.954;2023-07-24T08:29:52;22.30;95.10
5130;DHT22;2583;50.946;6.954;2023-07-24T08:32:20;22.20;96.00
5130;DHT22;2583;50.946;6.954;2023-07-24T08:34:47;22.10;95.70
5130;DHT22;2583;50.946;6.954;2023-07-24T08:37:14;22.10;95.30
5130;DHT22;2583;50.946;6.954;2023-07-24T08:39:40;22.10;95.10
5130;DHT22;2583;50.946;6.954;2023-07-24T08:42:11;22.10;95.10
5130;DHT22;2583;50.946;6.954;2023-07-24T08:44:39;22.20;94.40
5130;DHT22;2583;50.946;6.954;2023-07-24T08:47:10;22.30;94.50
5130;DHT22;2583;50.946;6.954;2023-07-24T08:49:39;22.40;91.00
5130;DHT22;2583;50.946;6.954;2023-07-24T08:52:09;22.60;90.20
5130;DHT22;2583;50.946;6.954;2023-07-24T08:54:54;22.70;85.20
5130;DHT22;2583;50.946;6.954;2023-07-24T08:57:21;22.80;83.50
5130;DHT22;2583;50.946;6.954;2023-07-24T08:59:48;23.00;81.50
5130;DHT22;2583;50.946;6.954;2023-07-24T09:02:14;23.10;78.30
5130;DHT22;2583;50.946;6.954;2023-07-24T09:04:41;23.00;77.80
5130;DHT22;2583;50.946;6.954;2023-07-24T09:07:08;23.10;78.90
5130;DHT22;2583;50.946;6.954;2023-07-24T09:09:36;23.10;76.90
5130;DHT22;2583;50.946;6.954;2023-07-24T09:12:03;23.00;79.00
5130;DHT22;2583;50.946;6.954;2023-07-24T09:14:30;23.00;80.60
5130;DHT22;2583;50.946;6.954;2023-07-24T09:19:31;23.10;77.50
5130;DHT22;2583;50.946;6.954;2023-07-24T09:22:14;23.10;76.10
5130;DHT22;2583;50.946;6.954;2023-07-24T09:24:56;23.10;75.40
5130;DHT22;2583;50.946;6.954;2023-07-24T09:27:28;23.20;74.70
5130;DHT22;2583;50.946;6.954;2023-07-24T09:29:58;23.10;73.50
5130;DHT22;2583;50.946;6.954;2023-07-24T09:32:26;23.10;73.30
5130;DHT22;2583;50.946;6.954;2023-07-24T09:34:53;23.20;72.20
5130;DHT22;2583;50.946;6.954;2023-07-24T09:37:32;23.20;70.50
5130;DHT22;2583;50.946;6.954;2023-07-24T09:39:59;23.20;70.40
5130;DHT22;2583;50.946;6.954;2023-07-24T09:42:34;23.20;68.10
5130;DHT22;2583;50.946;6.954;2023-07-24T09:45:07;23.20;67.60
5130;DHT22;2583;50.946;6.954;2023-07-24T09:47:34;23.20;67.40
5130;DHT22;2583;50.946;6.954;2023-07-24T09:50:21;23.20;67.30
5130;DHT22;2583;50.946;6.954;2023-07-24T09:52:50;23.30;68.20
5130;DHT22;2583;50.946;6.954;2023-07-24T09:55:25;23.30;66.90
5130;DHT22;2583;50.946;6.954;2023-07-24T09:57:56;23.40;65.40
5130;DHT22;2583;50.946;6.954;2023-07-24T10:00:25;23.50;66.30
5130;DHT22;2583;50.946;6.954;2023-07-24T10:02:52;23.50;60.80
5130;DHT22;2583;50.946;6.954;2023-07-24T10:05:19;23.50;60.40
5130;DHT22;2583;50.946;6.954;2023-07-24T10:07:47;23.40;59.30
5130;DHT22;2583;50.946;6.954;2023-07-24T10:10:14;23.50;59.60
5130;DHT22;2583;50.946;6.954;2023-07-24T10:12:41;23.50;59.00
5130;DHT22;2583;50.946;6.954;2023-07-24T10:15:08;23.50;61.00
5130;DHT22;2583;50.946;6.954;2023-07-24T10:17:42;23.70;60.80
5130;DHT22;2583;50.946;6.954;2023-07-24T10:20:10;24.10;57.80
5130;DHT22;2583;50.946;6.954;2023-07-24T10:22:41;24.30;56.40
5130;DHT22;2583;50.946;6.954;2023-07-24T10:25:09;24.70;54.50
5130;DHT22;2583;50.946;6.954;2023-07-24T10:27:42;25.00;50.80
5130;DHT22;2583;50.946;6.954;2023-07-24T10:30:10;25.00;50.30
5130;DHT22;2583;50.946;6.954;2023-07-24T10:35:42;25.10;47.40
5130;DHT22;2583;50.946;6.954;2023-07-24T10:38:10;25.10;46.90
5130;DHT22;2583;50.946;6.954;2023-07-24T10:40:39;25.20;46.90
5130;DHT22;2583;50.946;6.954;2023-07-24T10:43:09;25.30;46.10
5130;DHT22;2583;50.946;6.954;2023-07-24T10:45:45;25.40;44.90
5130;DHT22;2583;50.946;6.954;2023-07-24T10:48:12;25.30;44.20
5130;DHT22;2583;50.946;6.954;2023-07-24T10:50:44;25.10;44.90
5130;DHT22;2583;50.946;6.954;2023-07-24T10:53:21;25.00;45.80
5130;DHT22;2583;50.946;6.954;2023-07-24T10:55:49;24.80;46.00
5130;DHT22;2583;50.946;6.954;2023-07-24T10:58:17;24.70;46.80
5130;DHT22;2583;50.946;6.954;2023-07-24T11:00:44;24.50;47.00
5130;DHT22;2583;50.946;6.954;2023-07-24T11:03:14;24.40;47.60
5130;DHT22;2583;50.946;6.954;2023-07-24T11:05:42;24.20;50.10
5130;DHT22;2583;50.946;6.954;2023-07-24T11:08:19;24.20;56.60
5130;DHT22;2583;50.946;6.954;2023-07-24T11:10:48;24.10;62.10
5130;DHT22;2583;50.946;6.954;2023-07-24T11:13:16;24.20;79.30
5130;DHT22;2583;50.946;6.954;2023-07-24T11:15:43;24.30;85.00
5130;DHT22;2583;50.946;6.954;2023-07-24T11:18:10;24.40;88.20
5130;DHT22;2583;50.946;6.954;2023-07-24T11:20:54;24.50;74.90
5130;DHT22;2583;50.946;6.954;2023-07-24T11:23:23;24.90;80.00
5130;DHT22;2583;50.946;6.954;2023-07-24T11:25:53;25.00;74.40
5130;DHT22;2583;50.946;6.954;2023-07-24T11:28:20;24.90;70.20
5130;DHT22;2583;50.946;6.954;2023-07-24T11:30:47;24.80;72.60
5130;DHT22;2583;50.946;6.954;2023-07-24T11:33:15;25.00;61.30
5130;DHT22;2583;50.946;6.954;2023-07-24T11:35:45;25.00;55.90
5130;DHT22;2583;50.946;6.954;2023-07-24T11:38:13;25.20;51.40
5130;DHT22;2583;50.946;6.954;2023-07-24T11:40:41;25.20;51.10
5130;DHT22;2583;50.946;6.954;2023-07-24T11:43:18;25.00;51.00
5130;DHT22;2583;50.946;6.954;2023-07-24T11:45:45;24.70;49.50
5130;DHT22;2583;50.946;6.954;2023-07-24T11:48:15;22.30;99.90
5130;DHT22;2583;50.946;6.954;2023-07-24T11:50:43;20.10;99.90
5130;DHT22;2583;50.946;6.954;2023-07-24T11:53:30;19.50;99.90
5130;DHT22;2583;50.946;6.954;2023-07-24T11:55:58;19.10;99.90
5130;DHT22;2583;50.946;6.954;2023-07-24T11:58:27;18.70;99.90
5130;DHT22;2583;50.946;6.954;2023-07-24T12:00:54;18.60;99.90
5130;DHT22;2583;50.946;6.954;2023-07-24T12:03:22;18.50;99.90
5130;DHT22;2583;50.946;6.954;2023-07-24T12:05:51;18.50;99.90
5130;DHT22;2583;50.946;6.954;2023-07-24T12:08:20;18.60;99.90
5130;DHT22;2583;50.946;6.954;2023-07-24T12:10:49;18.70;99.90
5130;DHT22;2583;50.946;6.954;2023-07-24T12:13:15;18.80;99.90
5130;DHT22;2583;50.946;6.954;2023-07-24T12:15:46;19.00;99.90
5130;DHT22;2583;50.946;6.954;2023-07-24T12:18:12;19.10;99.90
5130;DHT22;2583;50.946;6.954;2023-07-24T12:20:39;19.10;99.90
5130;DHT22;2583;50.946;6.954;2023-07-24T12:23:06;18.90;99.90
5130;DHT22;2583;50.946;6.954;2023-07-24T12:25:33;18.90;99.90
5130;DHT22;2583;50.946;6.954;2023-07-24T12:28:00;19.10;99.90
5130;DHT22;2583;50.946;6.954;2023-07-24T12:30:26;19.30;99.90
5130;DHT22;2583;50.946;6.954;2023-07-24T12:32:53;19.10;99.90
5130;DHT22;2583;50.946;6.954;2023-07-24T12:35:20;19.00;99.90
5130;DHT22;2583;50.946;6.954;2023-07-24T12:37:47;18.90;99.90
5130;DHT22;2583;50.946;6.954;2023-07-24T12:40:14;18.70;99.90
5130;DHT22;2583;50.946;6.954;2023-07-24T12:42:41;18.60;99.90
5130;DHT22;2583;50.946;6.954;2023-07-24T12:45:08;18.60;99.90
5130;DHT22;2583;50.946;6.954;2023-07-24T12:47:34;18.40;99.90
5130;DHT22;2583;50.946;6.954;2023-07-24T12:50:01;18.40;99.90
5130;DHT22;2583;50.946;6.954;2023-07-24T12:52:33;18.30;99.90
5130;DHT22;2583;50.946;6.954;2023-07-24T12:54:59;18.20;99.90
5130;DHT22;2583;50.946;6.954;2023-07-24T12:57:28;18.20;99.90
5130;DHT22;2583;50.946;6.954;2023-07-24T12:59:55;18.20;99.90
5130;DHT22;2583;50.946;6.954;2023-07-24T13:02:22;18.20;99.90
5130;DHT22;2583;50.946;6.954;2023-07-24T13:04:49;18.20;99.90
5130;DHT22;2583;50.946;6.954;2023-07-24T13:07:16;18.40;99.90
5130;DHT22;2583;50.946;6.954;2023-07-24T13:09:44;18.40;99.90
5130;DHT22;2583;50.946;6.954;2023-07-24T13:12:10;18.50;99.90
5130;DHT22;2583;50.946;6.954;2023-07-24T13:14:37;18.90;99.90
5130;DHT22;2583;50.946;6.954;2023-07-24T13:17:09;19.60;99.90
5130;DHT22;2583;50.946;6.954;2023-07-24T13:19:36;20.20;99.90
5130;DHT22;2583;50.946;6.954;2023-07-24T13:22:03;20.90;99.90
5130;DHT22;2583;50.946;6.954;2023-07-24T13:24:30;21.10;99.90
5130;DHT22;2583;50.946;6.954;2023-07-24T13:26:57;20.90;99.90
5130;DHT22;2583;50.946;6.954;2023-07-24T13:29:24;21.10;99.90
5130;DHT22;2583;50.946;6.954;2023-07-24T13:31:52;21.50;99.90
5130;DHT22;2583;50.946;6.954;2023-07-24T13:34:19;21.80;99.90
5130;DHT22;2583;50.946;6.954;2023-07-24T13:36:47;22.20;99.90
5130;DHT22;2583;50.946;6.954;2023-07-24T13:39:14;22.70;99.90
5130;DHT22;2583;50.946;6.954;2023-07-24T13:41:41;23.00;99.90
5130;DHT22;2583;50.946;6.954;2023-07-24T13:44:09;23.20;99.90
5130;DHT22;2583;50.946;6.954;2023-07-24T13:46:35;23.30;99.90
5130;DHT22;2583;50.946;6.954;2023-07-24T13:49:06;23.00;99.90
5130;DHT22;2583;50.946;6.954;2023-07-24T13:51:33;22.30;99.90
5130;DHT22;2583;50.946;6.954;2023-07-24T13:54:00;21.90;99.90
5130;DHT22;2583;50.946;6.954;2023-07-24T13:56:29;21.70;99.90
5130;DHT22;2583;50.946;6.954;2023-07-24T13:59:00;21.10;99.90
5130;DHT22;2583;50.946;6.954;2023-07-24T14:01:26;20.60;99.90
5130;DHT22;2583;50.946;6.954;2023-07-24T14:03:53;20.40;99.90
5130;DHT22;2583;50.946;6.954;2023-07-24T14:06:20;20.40;99.90
5130;DHT22;2583;50.946;6.954;2023-07-24T14:08:47;20.50;99.90
5130;DHT22;2583;50.946;6.954;2023-07-24T14:11:14;20.40;99.90
5130;DHT22;2583;50.946;6.954;2023-07-24T14:13:40;20.40;99.90
5130;DHT22;2583;50.946;6.954;2023-07-24T14:16:07;20.30;99.90
5130;DHT22;2583;50.946;6.954;2023-07-24T14:18:34;20.20;99.90
5130;DHT22;2583;50.946;6.954;2023-07-24T14:21:01;20.30;99.90
5130;DHT22;2583;50.946;6.954;2023-07-24T14:23:27;20.40;99.90
5130;DHT22;2583;50.946;6.954;2023-07-24T14:25:54;20.50;99.90
5130;DHT22;2583;50.946;6.954;2023-07-24T14:28:21;20.50;99.90
5130;DHT22;2583;50.946;6.954;2023-07-24T14:30:48;20.40;99.90
5130;DHT22;2583;50.946;6.954;2023-07-24T14:33:14;20.40;99.90
5130;DHT22;2583;50.946;6.954;2023-07-24T14:35:42;20.30;99.90
5130;DHT22;2583;50.946;6.954;2023-07-24T14:38:08;20.20;99.90
5130;DHT22;2583;50.946;6.954;2023-07-24T14:40:35;20.30;99.90
5130;DHT22;2583;50.946;6.954;2023-07-24T14:43:02;20.40;99.90
5130;DHT22;2583;50.946;6.954;2023-07-24T14:45:33;20.40;99.90
5130;DHT22;2583;50.946;6.954;2023-07-24T14:48:00;20.50;99.90
5130;DHT22;2583;50.946;6.954;2023-07-24T14:50:27;20.60;99.90
5130;DHT22;2583;50.946;6.954;2023-07-24T14:52:54;20.60;99.90
5130;DHT22;2583;50.946;6.954;2023-07-24T14:55:21;20.70;99.90
5130;DHT22;2583;50.946;6.954;2023-07-24T14:57:48;20.80;99.90
5130;DHT22;2583;50.946;6.954;2023-07-24T15:00:15;20.90;99.90
5130;DHT22;2583;50.946;6.954;2023-07-24T15:02:43;21.00;99.90
5130;DHT22;2583;50.946;6.954;2023-07-24T15:05:10;21.00;99.90
5130;DHT22;2583;50.946;6.954;2023-07-24T15:07:37;21.10;99.90
5130;DHT22;2583;50.946;6.954;2023-07-24T15:10:05;21.20;99.90
5130;DHT22;2583;50.946;6.954;2023-07-24T15:12:32;21.30;99.90
5130;DHT22;2583;50.946;6.954;2023-07-24T15:14:59;21.40;99.90
5130;DHT22;2583;50.946;6.954;2023-07-24T15:17:25;21.60;99.90
5130;DHT22;2583;50.946;6.954;2023-07-24T15:19:52;21.60;99.90
5130;DHT22;2583;50.946;6.954;2023-07-24T15:22:20;21.60;99.90
5130;DHT22;2583;50.946;6.954;2023-07-24T15:24:47;21.60;99.90
5130;DHT22;2583;50.946;6.954;2023-07-24T15:27:14;21.50;99.90
5130;DHT22;2583;50.946;6.954;2023-07-24T15:29:40;21.60;99.90
5130;DHT22;2583;50.946;6.954;2023-07-24T15:32:07;21.70;99.90
5130;DHT22;2583;50.946;6.954;2023-07-24T15:34:34;21.70;99.90
5130;DHT22;2583;50.946;6.954;2023-07-24T15:37:05;21.70;99.90
5130;DHT22;2583;50.946;6.954;2023-07-24T15:39:32;21.60;99.90
5130;DHT22;2583;50.946;6.954;2023-07-24T15:41:59;21.70;99.90
5130;DHT22;2583;50.946;6.954;2023-07-24T15:44:26;21.80;99.90
5130;DHT22;2583;50.946;6.954;2023-07-24T15:46:52;21.80;99.90
5130;DHT22;2583;50.946;6.954;2023-07-24T15:49:19;21.80;99.90
5130;DHT22;2583;50.946;6.954;2023-07-24T15:51:46;21.80;99.90
5130;DHT22;2583;50.946;6.954;2023-07-24T15:54:13;21.60;99.90
5130;DHT22;2583;50.946;6.954;2023-07-24T15:56:40;21.80;99.90
5130;DHT22;2583;50.946;6.954;2023-07-24T15:59:07;21.90;99.90
5130;DHT22;2583;50.946;6.954;2023-07-24T16:01:35;21.90;99.90
5130;DHT22;2583;50.946;6.954;2023-07-24T16:04:02;21.90;99.90
5130;DHT22;2583;50.946;6.954;2023-07-24T16:06:29;21.90;99.90
5130;DHT22;2583;50.946;6.954;2023-07-24T16:08:56;22.00;99.90
5130;DHT22;2583;50.946;6.954;2023-07-24T16:11:23;22.00;99.90
5130;DHT22;2583;50.946;6.954;2023-07-24T16:13:50;22.20;99.90
5130;DHT22;2583;50.946;6.954;2023-07-24T16:16:18;22.30;99.90